Rochester, Iowa
Current Conditions -  °F | °C
As of 12:52 PM on Friday 31 Oct 2014 (Local Time) from KIOW Reporting Station
Clear Clear  
Wind Chill: 32°   Ceiling: Unl
Heat Index: 41°   Visibility: 10mi
Dew Point: 22°   Wind: 18mph
Humidity: 47%   Direction: 10°N
Pressure: 30.41"   Gusts: 26mph
Location:  41.7563°N, 91.1443°W
Report Text: KIOW 311752Z AUTO 01016G23KT 10SM CLR 05/M06 A3041 RMK AO2 SLP302 T00501056 10050 21006 50002
Loading
Personal Weather Stations






























Interactive Weather Map
Tropical Storm Tracking
New forecast layout! Learn more

10-Day Weather Forecast

Advertisements
Track Severe Weather on mobile